createdAt,value
2022-12-18T00:01:32.755Z,96043.28
2022-12-18T00:04:00.524Z,96042.41
2022-12-18T00:06:28.665Z,96044.13
2022-12-18T00:08:57.716Z,96054.09
2022-12-18T00:11:26.822Z,96050.31
2022-12-18T00:13:56.189Z,96050.81
2022-12-18T00:16:25.544Z,96060.06
2022-12-18T00:18:55.048Z,96052.94
2022-12-18T00:21:21.879Z,96056.69
2022-12-18T00:23:50.537Z,96071.06
2022-12-18T00:26:23.309Z,96062.44
2022-12-18T00:28:50.726Z,96064.53
2022-12-18T00:31:19.408Z,96066.19
2022-12-18T00:33:46.513Z,96069.41
2022-12-18T00:36:19.172Z,96068.84
2022-12-18T00:38:46.846Z,96082.09
2022-12-18T00:41:35.487Z,96071.84
2022-12-18T00:44:03.116Z,96086.03
2022-12-18T00:46:29.658Z,96083.94
2022-12-18T00:48:56.405Z,96074.91
2022-12-18T00:51:23.058Z,96085.19
2022-12-18T00:53:49.637Z,96079.91
2022-12-18T00:56:16.165Z,96073.94
2022-12-18T00:58:42.675Z,96069.34
2022-12-18T01:01:09.854Z,96071.44
2022-12-18T01:03:36.902Z,96073.38
2022-12-18T01:06:12.666Z,96082.41
2022-12-18T01:08:40.115Z,96089.94
2022-12-18T01:11:20.471Z,96086.81
2022-12-18T01:13:47.660Z,96092.09
2022-12-18T01:16:16.780Z,96092.56
2022-12-18T01:18:43.586Z,96089.38
2022-12-18T01:21:12.683Z,96097.88
2022-12-18T01:23:39.693Z,96086.59
2022-12-18T01:26:17.258Z,96096.94
2022-12-18T01:28:45.078Z,96102.72
2022-12-18T01:31:19.527Z,96084.75
2022-12-18T01:33:46.651Z,96109.44
2022-12-18T01:36:28.681Z,96108.88
2022-12-18T01:38:55.749Z,96115.38
2022-12-18T01:41:25.114Z,96121.66
2022-12-18T01:43:59.156Z,96126.22
2022-12-18T01:46:26.885Z,96122.78
2022-12-18T01:49:00.761Z,96114.81
2022-12-18T01:51:30.229Z,96118.94
2022-12-18T01:53:57.658Z,96129.59
2022-12-18T01:56:24.455Z,96125.53
2022-12-18T01:59:04.308Z,96131.66
2022-12-18T02:01:32.247Z,96134.28
2022-12-18T02:04:21.638Z,96140.19
2022-12-18T02:07:00.847Z,96141.53
2022-12-18T02:09:37.263Z,96137.56
2022-12-18T02:12:17.261Z,96141.06
2022-12-18T02:15:02.476Z,96126.09
2022-12-18T02:17:43.777Z,96116.88
2022-12-18T02:20:36.921Z,96139.13
2022-12-18T02:23:31.458Z,96135.03
2022-12-18T02:26:11.810Z,96137.81
2022-12-18T02:28:46.339Z,96144.47
2022-12-18T02:31:19.027Z,96135.81
2022-12-18T02:33:46.893Z,96138.53
2022-12-18T02:36:16.711Z,96129.34
2022-12-18T02:38:46.572Z,96125.88
2022-12-18T02:41:15.638Z,96143.78
2022-12-18T02:43:47.944Z,96141.97
2022-12-18T02:46:39.015Z,96125.69
2022-12-18T02:49:23.039Z,96148.59
2022-12-18T02:51:55.808Z,96148.81
2022-12-18T02:54:35.549Z,96152.34
2022-12-18T02:57:15.454Z,96153.84
2022-12-18T02:59:59.946Z,96153.09
2022-12-18T03:02:35.261Z,96165.03
2022-12-18T03:05:21.434Z,96165.59
2022-12-18T03:07:56.264Z,96163.06
2022-12-18T03:10:30.347Z,96170.41
2022-12-18T03:13:11.656Z,96167.03
2022-12-18T03:15:43.791Z,96159.09
2022-12-18T03:18:18.500Z,96168.72
2022-12-18T03:20:47.698Z,96173.41
2022-12-18T03:23:18.936Z,96170.16
2022-12-18T03:25:47.454Z,96157.88
2022-12-18T03:28:22.221Z,96161.53
2022-12-18T03:30:53.850Z,96156.34
2022-12-18T03:33:57.124Z,96169.78
2022-12-18T03:36:24.771Z,96173.19
2022-12-18T03:38:52.232Z,96171.94
2022-12-18T03:41:39.400Z,96176.81
2022-12-18T03:44:24.867Z,96175.59
2022-12-18T03:46:57.497Z,96174.84
2022-12-18T03:49:33.053Z,96159.75
2022-12-18T03:52:52.544Z,96171.63
2022-12-18T03:55:20.827Z,96163.88
2022-12-18T03:57:49.416Z,96177.63
2022-12-18T04:00:19.185Z,96174.91
2022-12-18T04:02:56.575Z,96182.19
2022-12-18T04:05:25.457Z,96179.91
2022-12-18T04:07:53.517Z,96182.34
2022-12-18T04:10:20.118Z,96184.63
2022-12-18T04:12:46.969Z,96171.41
2022-12-18T04:15:14.628Z,96184.63
2022-12-18T04:17:49.692Z,96184.94
2022-12-18T04:20:16.700Z,96188.41
2022-12-18T04:22:43.373Z,96190.75
2022-12-18T04:25:10.167Z,96171.97
2022-12-18T04:27:36.695Z,96190.56
2022-12-18T04:30:03.726Z,96182.25
2022-12-18T04:32:30.399Z,96192.31
2022-12-18T04:34:56.956Z,96188.47
2022-12-18T04:37:23.467Z,96194.44
2022-12-18T04:39:50.047Z,96196.44
2022-12-18T04:42:16.785Z,96203.63
2022-12-18T04:44:43.319Z,96197.03
2022-12-18T04:47:10.065Z,96193.09
2022-12-18T04:49:36.665Z,96190.94
2022-12-18T04:52:03.362Z,96199.06
2022-12-18T04:54:30.054Z,96199.88
2022-12-18T04:56:56.665Z,96190.31
2022-12-18T04:59:23.210Z,96190.41
2022-12-18T05:01:50.362Z,96186.56
2022-12-18T05:04:17.141Z,96185.41
2022-12-18T05:06:44.610Z,96194.88
2022-12-18T05:09:11.359Z,96189.53
2022-12-18T05:11:38.020Z,96194.44
2022-12-18T05:14:04.579Z,96195.56
2022-12-18T05:16:31.228Z,96191.06
2022-12-18T05:18:57.872Z,96193.94
2022-12-18T05:21:24.419Z,96196.94
2022-12-18T05:23:51.137Z,96199.34
2022-12-18T05:26:19.224Z,96200.78
2022-12-18T05:28:47.046Z,96200.00
2022-12-18T05:31:14.269Z,96205.38
2022-12-18T05:33:41.099Z,96212.50
2022-12-18T05:36:09.711Z,96215.16
2022-12-18T05:38:38.093Z,96216.63
2022-12-18T05:41:05.544Z,96196.47
2022-12-18T05:43:32.797Z,96204.25
2022-12-18T05:46:03.839Z,96207.69
2022-12-18T05:48:30.346Z,96204.31
2022-12-18T05:50:57.384Z,96205.47
2022-12-18T05:53:23.976Z,96204.00
2022-12-18T05:55:50.628Z,96214.47
2022-12-18T05:58:17.189Z,96211.34
2022-12-18T06:00:47.544Z,96216.47
2022-12-18T06:03:14.986Z,96206.72
2022-12-18T06:05:44.768Z,96215.22
2022-12-18T06:08:12.471Z,96213.25
2022-12-18T06:10:39.184Z,96230.41
2022-12-18T06:13:06.827Z,96230.09
2022-12-18T06:15:33.899Z,96221.88
2022-12-18T06:18:02.014Z,96238.22
2022-12-18T06:20:33.639Z,96237.63
2022-12-18T06:23:00.998Z,96234.28
2022-12-18T06:25:27.588Z,96237.44
2022-12-18T06:27:54.179Z,96234.16
2022-12-18T06:30:21.227Z,96240.88
2022-12-18T06:32:54.689Z,96228.22
2022-12-18T06:35:23.600Z,96241.81
2022-12-18T06:37:50.171Z,96246.69
2022-12-18T06:40:17.356Z,96243.16
2022-12-18T06:42:43.904Z,96232.00
2022-12-18T06:45:10.883Z,96236.56
2022-12-18T06:47:37.526Z,96245.09
2022-12-18T06:50:04.364Z,96242.41
2022-12-18T06:52:33.058Z,96252.41
2022-12-18T06:54:59.550Z,96242.38
2022-12-18T06:57:26.342Z,96244.38
2022-12-18T06:59:52.941Z,96229.19
2022-12-18T07:02:19.600Z,96245.88
2022-12-18T07:04:46.269Z,96250.56
2022-12-18T07:07:12.927Z,96267.09
2022-12-18T07:09:39.417Z,96262.94
2022-12-18T07:12:06.117Z,96265.97
2022-12-18T07:14:32.654Z,96269.19
2022-12-18T07:16:59.244Z,96280.53
2022-12-18T07:19:26.880Z,96274.63
2022-12-18T07:21:53.389Z,96281.34
2022-12-18T07:24:19.984Z,96275.59
2022-12-18T07:26:47.983Z,96284.91
2022-12-18T07:29:14.971Z,96287.31
2022-12-18T07:31:41.633Z,96286.91
2022-12-18T07:34:12.651Z,96294.66
2022-12-18T07:36:39.338Z,96296.59
2022-12-18T07:39:05.945Z,96296.00
2022-12-18T07:41:32.582Z,96300.44
2022-12-18T07:43:59.201Z,96302.13
2022-12-18T07:46:25.874Z,96308.34
2022-12-18T07:48:52.633Z,96307.50
2022-12-18T07:51:19.642Z,96312.50
2022-12-18T07:53:46.240Z,96315.78
2022-12-18T07:56:30.389Z,96324.25
2022-12-18T07:58:58.638Z,96327.91
2022-12-18T08:01:25.723Z,96317.69
2022-12-18T08:03:52.738Z,96322.63
2022-12-18T08:06:22.538Z,96332.63
2022-12-18T08:08:55.611Z,96319.47
2022-12-18T08:11:24.233Z,96325.78
2022-12-18T08:13:51.133Z,96331.38
2022-12-18T08:16:18.079Z,96341.16
2022-12-18T08:18:44.845Z,96341.19
2022-12-18T08:21:12.189Z,96333.47
2022-12-18T08:23:42.617Z,96333.00
2022-12-18T08:26:10.608Z,96340.03
2022-12-18T08:28:37.153Z,96339.78
2022-12-18T08:31:04.112Z,96334.16
2022-12-18T08:33:31.256Z,96325.81
2022-12-18T08:35:59.874Z,96331.78
2022-12-18T08:38:26.497Z,96326.03
2022-12-18T08:41:13.832Z,96338.03
2022-12-18T08:43:59.530Z,96339.41
2022-12-18T08:46:28.115Z,96326.38
2022-12-18T08:48:56.886Z,96323.69
2022-12-18T08:51:24.082Z,96322.44
2022-12-18T08:53:50.624Z,96318.38
2022-12-18T08:56:17.798Z,96313.03
2022-12-18T08:58:44.909Z,96323.06
2022-12-18T09:01:13.328Z,96322.53
2022-12-18T09:03:41.155Z,96313.63
2022-12-18T09:06:08.236Z,96315.94
2022-12-18T09:08:34.892Z,96312.94
2022-12-18T09:11:01.477Z,96331.72
2022-12-18T09:13:28.284Z,96321.00
2022-12-18T09:15:56.635Z,96309.09
2022-12-18T09:18:24.506Z,96313.06
2022-12-18T09:20:54.556Z,96311.75
2022-12-18T09:23:21.992Z,96317.91
2022-12-18T09:25:49.057Z,96307.06
2022-12-18T09:28:18.832Z,96327.47
2022-12-18T09:30:49.668Z,96325.94
2022-12-18T09:33:17.544Z,96321.53
2022-12-18T09:35:45.585Z,96336.81
2022-12-18T09:38:17.704Z,96327.59
2022-12-18T09:40:52.971Z,96335.13
2022-12-18T09:43:25.578Z,96333.63
2022-12-18T09:46:10.020Z,96327.22
2022-12-18T09:48:41.791Z,96331.25
2022-12-18T09:51:16.253Z,96314.81
2022-12-18T09:53:48.437Z,96334.66
2022-12-18T09:56:20.031Z,96331.69
2022-12-18T09:58:54.199Z,96338.84
2022-12-18T10:01:24.095Z,96347.03
2022-12-18T10:03:52.613Z,96348.94
2022-12-18T10:06:29.475Z,96345.72
2022-12-18T10:09:14.678Z,96342.50
2022-12-18T10:11:58.419Z,96345.28
2022-12-18T10:14:43.468Z,96333.59
2022-12-18T10:17:12.956Z,96329.16
2022-12-18T10:20:05.941Z,96327.44
2022-12-18T10:22:45.328Z,96321.88
2022-12-18T10:25:21.397Z,96321.41
2022-12-18T10:27:49.414Z,96317.94
2022-12-18T10:30:22.599Z,96322.38
2022-12-18T10:32:49.136Z,96314.53
2022-12-18T10:35:27.853Z,96314.38
2022-12-18T10:38:15.208Z,96331.44
2022-12-18T10:40:56.083Z,96328.69
2022-12-18T10:43:40.478Z,96328.38
2022-12-18T10:46:10.131Z,96325.00
2022-12-18T10:48:40.060Z,96324.44
2022-12-18T10:51:12.161Z,96323.59
2022-12-18T10:53:43.770Z,96301.47
2022-12-18T10:56:10.703Z,96314.50
2022-12-18T10:58:39.109Z,96319.78
2022-12-18T11:01:23.022Z,96329.38
2022-12-18T11:04:01.599Z,96321.09
2022-12-18T11:06:29.603Z,96323.50
2022-12-18T11:09:09.512Z,96321.28
2022-12-18T11:11:39.965Z,96315.34
2022-12-18T11:14:15.441Z,96306.16
2022-12-18T11:17:23.815Z,96308.78
2022-12-18T11:19:37.367Z,96322.28
2022-12-18T11:22:24.153Z,96309.53
2022-12-18T11:25:30.969Z,96312.16
2022-12-18T11:27:52.109Z,96305.88
2022-12-18T11:30:26.321Z,96309.09
2022-12-18T11:33:16.442Z,96303.09
2022-12-18T11:36:04.684Z,96298.81
2022-12-18T11:38:36.191Z,96295.91
2022-12-18T11:41:51.202Z,96295.84
2022-12-18T11:44:27.983Z,96278.25
2022-12-18T11:47:01.399Z,96291.88
2022-12-18T11:49:35.568Z,96288.84
2022-12-18T11:52:14.866Z,96283.34
2022-12-18T11:54:41.433Z,96287.84
2022-12-18T11:57:35.853Z,96285.06
2022-12-18T12:00:14.210Z,96281.34
2022-12-18T12:02:58.832Z,96269.56
2022-12-18T12:05:46.093Z,96271.38
2022-12-18T12:08:15.496Z,96266.91
2022-12-18T12:11:13.625Z,96261.53
2022-12-18T12:14:18.697Z,96257.44
2022-12-18T12:16:58.106Z,96250.38
2022-12-18T12:19:24.547Z,96260.88
2022-12-18T12:22:29.694Z,96260.66
2022-12-18T12:25:21.264Z,96257.88
2022-12-18T12:27:56.740Z,96248.69
2022-12-18T12:30:46.567Z,96242.88
2022-12-18T12:33:57.861Z,96242.88
2022-12-18T12:36:42.181Z,96236.13
2022-12-18T12:39:15.545Z,96237.06
2022-12-18T12:42:04.835Z,96230.44
2022-12-18T12:44:54.266Z,96234.88
2022-12-18T12:47:34.197Z,96221.00
2022-12-18T12:50:07.954Z,96235.69
2022-12-18T12:52:46.442Z,96233.59
2022-12-18T12:55:23.729Z,96242.81
2022-12-18T12:58:15.360Z,96245.94
2022-12-18T13:00:51.789Z,96235.50
2022-12-18T13:03:43.854Z,96229.81
2022-12-18T13:06:28.822Z,96227.72
2022-12-18T13:09:00.003Z,96222.78
2022-12-18T13:12:00.279Z,96226.53
2022-12-18T13:14:32.147Z,96231.25
2022-12-18T13:17:18.431Z,96239.50
2022-12-18T13:19:45.482Z,96235.03
2022-12-18T13:22:24.877Z,96227.50
2022-12-18T13:24:52.356Z,96231.25
2022-12-18T13:27:55.136Z,96230.47
2022-12-18T13:30:34.600Z,96223.66
2022-12-18T13:33:20.895Z,96224.91
2022-12-18T13:35:47.713Z,96226.50
2022-12-18T13:38:32.842Z,96231.81
2022-12-18T13:41:16.018Z,96227.84
2022-12-18T13:43:47.153Z,96233.84
2022-12-18T13:46:21.210Z,96229.06
2022-12-18T13:48:57.019Z,96231.22
2022-12-18T13:51:25.435Z,96223.22
2022-12-18T13:54:12.929Z,96218.34
2022-12-18T13:56:45.616Z,96222.19
2022-12-18T13:59:15.832Z,96220.06
2022-12-18T14:01:59.667Z,96217.88
2022-12-18T14:04:31.785Z,96228.00
2022-12-18T14:07:04.712Z,96213.91
2022-12-18T14:09:35.827Z,96208.53
2022-12-18T14:12:22.833Z,96218.03
2022-12-18T14:14:55.047Z,96216.66
2022-12-18T14:17:22.095Z,96216.22
2022-12-18T14:19:51.267Z,96219.59
2022-12-18T14:22:28.810Z,96205.34
2022-12-18T14:25:24.906Z,96223.66
2022-12-18T14:27:54.753Z,96210.22
2022-12-18T14:30:29.576Z,96226.34
2022-12-18T14:33:05.332Z,96228.63
2022-12-18T14:35:33.945Z,96222.34
2022-12-18T14:38:23.464Z,96227.28
2022-12-18T14:40:58.080Z,96223.56
2022-12-18T14:43:24.826Z,96209.72
2022-12-18T14:45:52.609Z,96222.53
2022-12-18T14:48:41.141Z,96216.16
2022-12-18T14:51:15.558Z,96222.78
2022-12-18T14:53:50.677Z,96223.13
2022-12-18T14:56:23.663Z,96221.72
2022-12-18T14:58:54.836Z,96209.78
2022-12-18T15:01:48.921Z,96210.22
2022-12-18T15:04:44.826Z,96202.56
2022-12-18T15:07:23.681Z,96207.28
2022-12-18T15:10:17.046Z,96213.88
2022-12-18T15:13:07.221Z,96216.59
2022-12-18T15:15:34.052Z,96224.97
2022-12-18T15:18:13.355Z,96216.75
2022-12-18T15:20:50.589Z,96223.00
2022-12-18T15:23:28.778Z,96235.31
2022-12-18T15:26:07.067Z,96231.88
2022-12-18T15:28:46.584Z,96235.72
2022-12-18T15:31:13.331Z,96231.88
2022-12-18T15:33:45.103Z,96226.13
2022-12-18T15:36:14.504Z,96240.69
2022-12-18T15:38:41.776Z,96232.63
2022-12-18T15:41:20.044Z,96234.16
2022-12-18T15:43:51.274Z,96234.53
2022-12-18T15:46:25.560Z,96232.84
2022-12-18T15:48:59.734Z,96231.28
2022-12-18T15:51:33.688Z,96239.53
2022-12-18T15:54:04.647Z,96232.91
2022-12-18T15:56:50.361Z,96244.91
2022-12-18T15:59:19.861Z,96232.25
2022-12-18T16:01:50.636Z,96243.84
2022-12-18T16:04:21.453Z,96243.59
2022-12-18T16:07:13.803Z,96235.03
2022-12-18T16:09:35.339Z,96243.28
2022-12-18T16:12:02.005Z,96237.13
2022-12-18T16:14:32.457Z,96242.59
2022-12-18T16:17:02.354Z,96234.28
2022-12-18T16:19:29.993Z,96239.25
2022-12-18T16:21:58.806Z,96234.19
2022-12-18T16:24:29.241Z,96234.88
2022-12-18T16:26:58.690Z,96246.84
2022-12-18T16:29:28.539Z,96242.25
2022-12-18T16:31:56.888Z,96226.50
2022-12-18T16:34:29.597Z,96243.38
2022-12-18T16:37:04.928Z,96243.38
2022-12-18T16:39:36.190Z,96235.91
2022-12-18T16:42:06.165Z,96246.06
2022-12-18T16:44:34.104Z,96239.16
2022-12-18T16:47:03.079Z,96232.16
2022-12-18T16:49:30.462Z,96234.34
2022-12-18T16:51:57.079Z,96229.06
2022-12-18T16:54:23.940Z,96226.47
2022-12-18T16:56:51.739Z,96232.66
2022-12-18T16:59:19.062Z,96225.28
2022-12-18T17:01:46.923Z,96229.50
2022-12-18T17:04:14.255Z,96209.72
2022-12-18T17:06:43.212Z,96228.97
2022-12-18T17:09:14.324Z,96227.81
2022-12-18T17:11:41.308Z,96237.44
2022-12-18T17:14:19.175Z,96223.88
2022-12-18T17:16:46.928Z,96242.44
2022-12-18T17:19:17.263Z,96226.09
2022-12-18T17:21:45.719Z,96234.75
2022-12-18T17:24:12.317Z,96243.22
2022-12-18T17:26:39.005Z,96240.78
2022-12-18T17:29:05.928Z,96245.50
2022-12-18T17:31:33.449Z,96224.00
2022-12-18T17:34:03.889Z,96233.97
2022-12-18T17:36:33.714Z,96225.34
2022-12-18T17:39:01.852Z,96225.75
2022-12-18T17:41:29.951Z,96235.53
2022-12-18T17:43:58.760Z,96229.56
2022-12-18T17:46:26.504Z,96234.34
2022-12-18T17:48:55.959Z,96230.66
2022-12-18T17:51:22.731Z,96238.38
2022-12-18T17:53:49.758Z,96227.16
2022-12-18T17:56:19.154Z,96233.31
2022-12-18T17:58:46.196Z,96216.50
2022-12-18T18:01:14.776Z,96222.28
2022-12-18T18:03:43.793Z,96219.34
2022-12-18T18:06:11.682Z,96217.47
2022-12-18T18:08:38.209Z,96216.72
2022-12-18T18:11:26.422Z,96242.72
2022-12-18T18:14:02.535Z,96242.25
2022-12-18T18:16:38.326Z,96246.84
2022-12-18T18:19:08.190Z,96252.72
2022-12-18T18:21:39.061Z,96240.25
2022-12-18T18:24:06.223Z,96238.38
2022-12-18T18:26:33.848Z,96246.25
2022-12-18T18:29:02.519Z,96245.50
2022-12-18T18:31:35.320Z,96241.06
2022-12-18T18:34:08.205Z,96229.03
2022-12-18T18:36:34.923Z,96243.91
2022-12-18T18:39:02.230Z,96243.34
2022-12-18T18:41:30.513Z,96236.75
2022-12-18T18:43:58.513Z,96239.34
2022-12-18T18:46:26.228Z,96237.53
2022-12-18T18:48:53.167Z,96236.09
2022-12-18T18:51:21.635Z,96245.50
2022-12-18T18:53:50.530Z,96240.03
2022-12-18T18:56:56.275Z,96242.06
2022-12-18T18:59:06.101Z,96235.13
2022-12-18T19:01:33.049Z,96240.50
2022-12-18T19:04:00.746Z,96238.50
2022-12-18T19:06:28.408Z,96244.47
2022-12-18T19:08:56.899Z,96229.97
2022-12-18T19:11:42.575Z,96232.44
2022-12-18T19:14:12.111Z,96231.88
2022-12-18T19:16:39.428Z,96228.63
2022-12-18T19:19:06.937Z,96226.28
2022-12-18T19:21:34.728Z,96227.44
2022-12-18T19:24:02.670Z,96222.06
2022-12-18T19:26:30.235Z,96234.06
2022-12-18T19:29:08.165Z,96248.75
2022-12-18T19:31:36.951Z,96244.56
2022-12-18T19:34:06.679Z,96233.41
2022-12-18T19:36:35.208Z,96233.41
2022-12-18T19:39:02.748Z,96231.84
2022-12-18T19:41:31.317Z,96230.00
2022-12-18T19:43:58.665Z,96217.97
2022-12-18T19:46:25.487Z,96234.88
2022-12-18T19:48:52.265Z,96246.66
2022-12-18T19:51:22.862Z,96240.66
2022-12-18T19:53:54.981Z,96224.53
2022-12-18T19:56:26.864Z,96229.47
2022-12-18T19:58:54.426Z,96225.06
2022-12-18T20:01:23.029Z,96222.38
2022-12-18T20:03:52.308Z,96229.50
2022-12-18T20:06:35.500Z,96226.09
2022-12-18T20:09:06.712Z,96225.41
2022-12-18T20:11:41.571Z,96217.06
2022-12-18T20:14:08.667Z,96234.16
2022-12-18T20:16:35.431Z,96239.16
2022-12-18T20:19:02.437Z,96214.97
2022-12-18T20:21:29.745Z,96214.84
2022-12-18T20:23:56.446Z,96215.78
2022-12-18T20:26:24.080Z,96222.38
2022-12-18T20:28:50.958Z,96231.38
2022-12-18T20:31:17.473Z,96227.53
2022-12-18T20:33:47.520Z,96222.06
2022-12-18T20:36:21.398Z,96218.91
2022-12-18T20:38:55.715Z,96206.06
2022-12-18T20:41:24.999Z,96221.03
2022-12-18T20:43:51.862Z,96213.63
2022-12-18T20:46:19.069Z,96222.66
2022-12-18T20:48:48.194Z,96228.50
2022-12-18T20:51:17.715Z,96220.00
2022-12-18T20:53:45.619Z,96232.63
2022-12-18T20:56:20.166Z,96234.06
2022-12-18T20:58:53.964Z,96233.09
2022-12-18T21:01:23.408Z,96234.41
2022-12-18T21:03:51.233Z,96234.06
2022-12-18T21:06:19.621Z,96236.19
2022-12-18T21:08:46.426Z,96227.25
2022-12-18T21:11:38.567Z,96223.88
2022-12-18T21:14:15.941Z,96233.22
2022-12-18T21:16:43.962Z,96231.06
2022-12-18T21:19:16.976Z,96218.59
2022-12-18T21:21:44.483Z,96220.00
2022-12-18T21:24:11.694Z,96215.66
2022-12-18T21:26:45.488Z,96212.56
2022-12-18T21:29:19.347Z,96216.06
2022-12-18T21:31:46.805Z,96213.88
2022-12-18T21:34:26.373Z,96215.41
2022-12-18T21:36:54.184Z,96206.25
2022-12-18T21:39:22.504Z,96217.63
2022-12-18T21:42:08.582Z,96215.19
2022-12-18T21:44:38.091Z,96213.75
2022-12-18T21:47:21.497Z,96198.22
2022-12-18T21:49:53.166Z,96205.50
2022-12-18T21:52:30.916Z,96209.03
2022-12-18T21:55:03.293Z,96206.97
2022-12-18T21:57:35.088Z,96204.97
2022-12-18T22:00:02.222Z,96205.75
2022-12-18T22:02:29.182Z,96208.03
2022-12-18T22:04:55.900Z,96199.00
2022-12-18T22:07:23.162Z,96199.88
2022-12-18T22:09:51.100Z,96193.22
2022-12-18T22:12:35.460Z,96198.13
2022-12-18T22:15:04.471Z,96190.72
2022-12-18T22:17:31.150Z,96209.47
2022-12-18T22:19:57.838Z,96204.41
2022-12-18T22:22:24.353Z,96203.16
2022-12-18T22:24:50.906Z,96183.22
2022-12-18T22:27:17.594Z,96197.94
2022-12-18T22:30:02.681Z,96198.81
2022-12-18T22:32:31.328Z,96198.94
2022-12-18T22:35:07.187Z,96188.91
2022-12-18T22:37:34.929Z,96194.66
2022-12-18T22:40:03.325Z,96204.91
2022-12-18T22:42:31.142Z,96202.63
2022-12-18T22:44:57.686Z,96201.50
2022-12-18T22:47:28.004Z,96201.56
2022-12-18T22:49:55.831Z,96199.25
2022-12-18T22:52:22.556Z,96193.97
2022-12-18T22:54:51.462Z,96205.44
2022-12-18T22:57:20.102Z,96209.03
2022-12-18T22:59:46.875Z,96194.78
2022-12-18T23:02:13.554Z,96201.25
2022-12-18T23:04:40.288Z,96196.00
2022-12-18T23:07:07.009Z,96187.44
2022-12-18T23:09:34.011Z,96181.50
2022-12-18T23:12:01.160Z,96185.88
2022-12-18T23:14:28.841Z,96193.66
2022-12-18T23:16:55.667Z,96201.44
2022-12-18T23:19:23.512Z,96194.28
2022-12-18T23:21:51.405Z,96203.22
2022-12-18T23:24:18.407Z,96197.53
2022-12-18T23:26:44.989Z,96203.84
2022-12-18T23:29:11.682Z,96200.63
2022-12-18T23:31:39.609Z,96191.81
2022-12-18T23:34:06.885Z,96194.09
2022-12-18T23:36:45.890Z,96184.53
2022-12-18T23:39:28.451Z,96196.63
2022-12-18T23:41:56.386Z,96198.81
2022-12-18T23:44:23.214Z,96195.16
2022-12-18T23:46:49.819Z,96205.59
2022-12-18T23:49:16.554Z,96203.00
2022-12-18T23:51:43.498Z,96204.91
2022-12-18T23:54:10.787Z,96205.66
2022-12-18T23:56:37.969Z,96205.59
2022-12-18T23:59:04.897Z,96209.13
